• Join FlightAware (Why Join?)
  • Login
  • US Flag 
03:41AM EDT


 

Airport Tracker/Info


-or-


 

Live Flight TrackerFlight Track Log ✈ N39477 ✈ 04-May-2014 ✈ KAIZ - KFLV

Flight Track Log - Related Links

Times and Time Zones

All times are in EDT time to prevent confusion due to time zone crossing. See the N39477 flight status page for this flight to view local times or setup timezone preferences in your user account.

Time Position Orientation Groundspeed Altitude Reporting Facility
EDT Latitude Longitude Course Direction KTS MPH feet Rate Location/Type
03:37PM 38.1356 -92.6839 302° West 113 130 3,800  Level Kansas City Center
03:38PM 38.1572 -92.7203 307° West 112 129 4,500 480 Climbing Kansas City Center
03:39PM 38.1747 -92.7517 305° West 109 125 4,900 360 Climbing Kansas City Center
03:40PM 38.1922 -92.7861 303° West 110 127 5,300 360 Climbing Kansas City Center
03:41PM 38.1984 -92.7346 306° West  Level FlightAware Approximate
03:41PM 38.2117 -92.8200 306° West 114 131 5,700  Level Kansas City Center
03:42PM 38.2175 -92.7683 302° West  Level FlightAware Approximate
03:42PM 38.2314 -92.8506 309° West 114 131 6,000  Level Kansas City Center
03:43PM 38.2497 -92.8828 306° West 114 131 6,300 240 Climbing Kansas City Center
03:44PM 38.2675 -92.9167 304° West 114 131 6,500 60 Climbing Kansas City Center
03:45PM 38.2897 -92.9631 301° West 120 138 6,500  Level Kansas City Center
03:46PM 38.3119 -93.0025 306° West 129 148 6,500  Level Kansas City Center
03:47PM 38.3358 -93.0383 310° West 131 151 6,500 180 Level Kansas City Center
03:48PM 38.3583 -93.0742 309° West 131 151 6,900 480 Climbing Kansas City Center
03:49PM 38.3789 -93.1047 311° West 125 144 7,500 480 Climbing Kansas City Center
03:50PM 38.3978 -93.1319 312° West 112 129 7,900 420 Climbing Kansas City Center
03:51PM 38.4192 -93.1700 306° West 111 128 8,400 240 Climbing Kansas City Center
03:52PM 38.4353 -93.2042 301° West 111 128 8,500  Climbing Kansas City Center
03:53PM 38.4561 -93.2397 307° West 122 140 8,500  Level Kansas City Center
03:54PM 38.4781 -93.2744 309° West 123 142 8,500  Level Kansas City Center
03:55PM 38.4986 -93.3117 305° West 124 143 8,500  Level Kansas City Center
03:56PM 38.5197 -93.3486 306° West 125 144 8,600  Climbing Kansas City Center
03:57PM 38.5428 -93.3878 307° West 132 152 8,500 -120 Descending Kansas City Center
03:58PM 38.5706 -93.4328 308° West 133 153 8,400 -60 Descending Kansas City Center
04:00PM 38.5947 -93.4681 311° West 133 153 8,400  Level Kansas City Center
04:01PM 38.6183 -93.4992 314° West 127 146 8,500  Climbing Kansas City Center
04:02PM 38.6361 -93.5333 304° West 120 138 8,500  Level Kansas City Center
04:03PM 38.6536 -93.5689 302° West 120 138 8,600  Climbing Kansas City Center
04:04PM 38.6717 -93.6064 302° West 120 138 8,500 -120 Descending Kansas City Center
04:05PM 38.6972 -93.6503 307° West 123 142 8,400  Descending Kansas City Center
04:06PM 38.7203 -93.6869 309° West 126 145 8,500  Climbing Kansas City Center
04:07PM 38.7425 -93.7250 307° West 133 153 8,500  Level Kansas City Center
04:08PM 38.7658 -93.7644 307° West 132 152 8,500  Level Kansas City Center
04:09PM 38.7878 -93.8019 307° West 132 152 8,500 -60 Level Kansas City Center
04:10PM 38.8103 -93.8386 308° West 131 151 8,400 -60 Descending Kansas City Center
04:11PM 38.8319 -93.8764 306° West 132 152 8,400  Level Kansas City Center
04:12PM 38.8531 -93.9133 306° West 131 151 8,500  Climbing Kansas City Center
04:13PM 38.8783 -93.9581 306° West 130 150 8,500 -60 Level Kansas City Center
04:14PM 38.8992 -93.9983 304° West 132 152 8,400  Descending Kansas City Center
04:15PM 38.9225 -94.0353 309° West 134 154 8,500  Climbing Kansas City Center
04:16PM 38.9436 -94.0739 305° West 133 153 8,500 -60 Level Kansas City Center
04:17PM 38.9653 -94.1128 306° West 134 154 8,400 -60 Descending Kansas City Center
04:18PM 38.9858 -94.1519 304° West 133 153 8,400  Level Kansas City Center
04:19PM 39.0092 -94.1983 303° West 131 151 8,500  Climbing Kansas City Center
04:20PM 39.0300 -94.2375 304° West 132 152 8,500 -60 Level Kansas City Center
04:21PM 39.0489 -94.2764 302° West 131 151 8,400 -60 Descending Kansas City Center
04:22PM 39.0706 -94.3169 305° West 132 152 8,400 -60 Level Kansas City Center
04:23PM 39.0928 -94.3561 306° West 133 153 8,300 -420 Descending Kansas City Center
04:24PM 39.1236 -94.4047 309° West 144 166 7,600 -720 Descending Kansas City Center
04:25PM 39.1511 -94.4458 311° West 149 171 6,800 -720 Descending Kansas City Center
04:26PM 39.1719 -94.4906 301° West 148 170 6,200 -600 Descending Kansas City Center
04:27PM 39.1914 -94.5353 299° West 146 168 5,600 -600 Descending Kansas City Center
04:28PM 39.2208 -94.5767 313° West 153 176 5,000 -480 Descending Kansas City Center
04:29PM 39.2492 -94.6192 311° West 158 182 4,700 -300 Descending Kansas City Center
04:31PM 39.2825 -94.6683 311° West 154 177 4,400 -240 Descending Kansas City Center
04:32PM 39.2983 -94.7117 295° West 137 158 4,300 -300 Descending Kansas City Center
04:33PM 39.3094 -94.7600 287° West 139 160 3,800 -540 Descending Kansas City Center
04:34PM 39.3250 -94.8133 291° West 154 177 3,200 -540 Descending Kansas City Center
04:35PM 39.3456 -94.8736 294° West 160 184 2,700 -480 Descending Kansas City Center